createdAt,value
2016-08-06T00:00:02.029Z,960.55
2016-08-06T00:01:02.055Z,960.52
2016-08-06T00:02:02.076Z,960.53
2016-08-06T00:03:02.101Z,960.52
2016-08-06T00:04:02.125Z,960.56
2016-08-06T00:05:02.149Z,960.56
2016-08-06T00:06:02.183Z,960.58
2016-08-06T00:07:02.196Z,960.57
2016-08-06T00:08:02.224Z,960.62
2016-08-06T00:09:02.248Z,960.56
2016-08-06T00:10:02.268Z,960.61
2016-08-06T00:11:02.293Z,960.58
2016-08-06T00:12:02.317Z,960.63
2016-08-06T00:13:02.390Z,960.61
2016-08-06T00:14:02.365Z,960.58
2016-08-06T00:16:02.513Z,960.63
2016-08-06T00:17:02.448Z,960.64
2016-08-06T00:18:02.461Z,960.65
2016-08-06T00:19:02.485Z,960.72
2016-08-06T00:20:02.509Z,960.68
2016-08-06T00:21:02.534Z,960.69
2016-08-06T00:22:02.556Z,960.67
2016-08-06T00:23:02.580Z,960.68
2016-08-06T00:24:02.604Z,960.66
2016-08-06T00:25:02.627Z,960.66
2016-08-06T00:26:02.652Z,960.68
2016-08-06T00:27:02.678Z,960.59
2016-08-06T00:28:02.699Z,960.58
2016-08-06T00:29:02.723Z,960.6
2016-08-06T00:31:02.771Z,960.61
2016-08-06T00:32:02.795Z,960.62
2016-08-06T00:33:02.820Z,960.64
2016-08-06T00:34:02.894Z,960.66
2016-08-06T00:35:02.868Z,960.67
2016-08-06T00:36:02.890Z,960.62
2016-08-06T00:37:02.915Z,960.64
2016-08-06T00:38:02.940Z,960.6
2016-08-06T00:39:02.964Z,960.62
2016-08-06T00:40:02.987Z,960.59
2016-08-06T00:41:03.112Z,960.58
2016-08-06T00:42:03.034Z,960.55
2016-08-06T00:43:03.113Z,960.55
2016-08-06T00:44:03.086Z,960.54
2016-08-06T00:45:03.108Z,960.54
2016-08-06T00:46:03.130Z,960.52
2016-08-06T00:47:03.156Z,960.55
2016-08-06T00:48:03.178Z,960.57
2016-08-06T00:49:03.204Z,960.59
2016-08-06T00:50:03.226Z,960.58
2016-08-06T00:51:03.250Z,960.58
2016-08-06T00:52:03.274Z,960.58
2016-08-06T00:53:03.319Z,960.63
2016-08-06T00:54:03.321Z,960.63
2016-08-06T00:55:03.351Z,960.61
2016-08-06T00:56:03.379Z,960.6
2016-08-06T00:57:03.394Z,960.64
2016-08-06T00:58:03.417Z,960.58
2016-08-06T00:59:03.442Z,960.61
2016-08-06T01:00:03.466Z,960.62
2016-08-06T01:01:03.498Z,960.58
2016-08-06T01:02:03.520Z,960.6
2016-08-06T01:03:03.586Z,960.6
2016-08-06T01:04:03.560Z,960.59
2016-08-06T01:05:03.584Z,960.6
2016-08-06T01:06:03.610Z,960.64
2016-08-06T01:07:03.634Z,960.64
2016-08-06T01:08:03.656Z,960.63
2016-08-06T01:09:03.692Z,960.64
2016-08-06T01:10:03.716Z,960.7
2016-08-06T01:11:03.728Z,960.72
2016-08-06T01:12:03.753Z,960.73
2016-08-06T01:13:03.775Z,960.72
2016-08-06T01:14:03.801Z,960.73
2016-08-06T01:15:03.822Z,960.76
2016-08-06T01:16:03.846Z,960.8
2016-08-06T01:17:03.872Z,960.75
2016-08-06T01:18:03.895Z,960.78
2016-08-06T01:19:03.917Z,960.76
2016-08-06T01:20:03.942Z,960.75
2016-08-06T01:21:03.966Z,960.77
2016-08-06T01:22:03.990Z,960.77
2016-08-06T01:23:04.069Z,960.77
2016-08-06T01:24:04.488Z,960.8
2016-08-06T01:25:04.062Z,960.77
2016-08-06T01:26:04.086Z,960.72
2016-08-06T01:27:04.146Z,960.72
2016-08-06T01:28:04.141Z,960.73
2016-08-06T01:29:04.158Z,960.69
2016-08-06T01:30:04.181Z,960.72
2016-08-06T01:31:04.206Z,960.68
2016-08-06T01:32:04.230Z,960.71
2016-08-06T01:33:04.424Z,960.68
2016-08-06T01:34:04.276Z,960.72
2016-08-06T01:35:04.311Z,960.73
2016-08-06T01:36:04.325Z,960.76
2016-08-06T01:37:04.348Z,960.8
2016-08-06T01:38:04.371Z,960.78
2016-08-06T01:39:04.395Z,960.77
2016-08-06T01:40:04.419Z,960.76
2016-08-06T01:41:04.442Z,960.79
2016-08-06T01:42:04.467Z,960.76
2016-08-06T01:43:04.490Z,960.8
2016-08-06T01:44:04.515Z,960.82
2016-08-06T01:45:04.538Z,960.79
2016-08-06T01:46:04.562Z,960.8
2016-08-06T01:47:04.586Z,960.8
2016-08-06T01:48:04.681Z,960.83
2016-08-06T01:49:04.634Z,960.79
2016-08-06T01:50:04.660Z,960.75
2016-08-06T01:51:04.685Z,960.78
2016-08-06T01:52:04.704Z,960.8
2016-08-06T01:53:04.728Z,960.75
2016-08-06T01:54:04.752Z,960.81
2016-08-06T01:55:04.777Z,960.77
2016-08-06T01:56:04.851Z,960.8
2016-08-06T01:57:04.824Z,960.81
2016-08-06T01:58:04.849Z,960.8
2016-08-06T01:59:04.871Z,960.81
2016-08-06T02:00:04.895Z,960.78
2016-08-06T02:01:04.920Z,960.77
2016-08-06T02:02:04.944Z,960.79
2016-08-06T02:03:05.018Z,960.78
2016-08-06T02:04:04.992Z,960.77
2016-08-06T02:05:05.015Z,960.77
2016-08-06T02:06:05.039Z,960.78
2016-08-06T02:07:05.062Z,960.78
2016-08-06T02:08:05.088Z,960.8
2016-08-06T02:09:05.112Z,960.85
2016-08-06T02:10:05.135Z,960.85
2016-08-06T02:11:05.160Z,960.87
2016-08-06T02:12:05.184Z,960.86
2016-08-06T02:13:05.208Z,960.85
2016-08-06T02:14:05.242Z,960.85
2016-08-06T02:15:05.254Z,960.86
2016-08-06T02:16:05.279Z,960.85
2016-08-06T02:17:05.302Z,960.85
2016-08-06T02:18:05.327Z,960.83
2016-08-06T02:19:05.352Z,960.81
2016-08-06T02:20:05.375Z,960.81
2016-08-06T02:21:05.399Z,960.82
2016-08-06T02:22:05.423Z,960.82
2016-08-06T02:23:05.447Z,960.83
2016-08-06T02:24:05.471Z,960.77
2016-08-06T02:25:05.495Z,960.73
2016-08-06T02:26:05.520Z,960.78
2016-08-06T02:27:05.545Z,960.76
2016-08-06T02:28:05.567Z,960.78
2016-08-06T02:29:05.590Z,960.79
2016-08-06T02:30:05.619Z,960.78
2016-08-06T02:31:05.639Z,960.78
2016-08-06T02:32:05.662Z,960.74
2016-08-06T02:33:05.687Z,960.78
2016-08-06T02:34:05.711Z,960.78
2016-08-06T02:35:05.736Z,960.78
2016-08-06T02:36:05.759Z,960.79
2016-08-06T02:37:05.782Z,960.81
2016-08-06T02:38:05.809Z,960.86
2016-08-06T02:39:05.831Z,960.82
2016-08-06T02:40:05.855Z,960.83
2016-08-06T02:41:05.879Z,960.87
2016-08-06T02:42:05.904Z,960.87
2016-08-06T02:43:05.927Z,960.87
2016-08-06T02:44:05.952Z,960.89
2016-08-06T02:45:05.977Z,960.84
2016-08-06T02:46:06.001Z,960.8
2016-08-06T02:47:06.028Z,960.81
2016-08-06T02:48:06.446Z,960.79
2016-08-06T02:49:06.240Z,960.76
2016-08-06T02:50:06.098Z,960.76
2016-08-06T02:51:06.128Z,960.73
2016-08-06T02:52:06.144Z,960.72
2016-08-06T02:53:06.179Z,960.65
2016-08-06T02:54:06.192Z,960.63
2016-08-06T02:55:06.219Z,960.65
2016-08-06T02:56:06.242Z,960.68
2016-08-06T02:57:06.267Z,960.69
2016-08-06T02:58:06.297Z,960.7
2016-08-06T02:59:06.316Z,960.69
2016-08-06T03:00:06.340Z,960.7
2016-08-06T03:01:06.363Z,960.69
2016-08-06T03:02:06.473Z,960.72
2016-08-06T03:03:06.411Z,960.73
2016-08-06T03:04:06.449Z,960.76
2016-08-06T03:05:06.459Z,960.75
2016-08-06T03:06:06.484Z,960.72
2016-08-06T03:07:06.509Z,960.77
2016-08-06T03:08:06.532Z,960.82
2016-08-06T03:09:06.557Z,960.79
2016-08-06T03:10:06.581Z,960.82
2016-08-06T03:11:06.605Z,960.81
2016-08-06T03:12:06.630Z,960.76
2016-08-06T03:13:06.654Z,960.79
2016-08-06T03:14:06.678Z,960.81
2016-08-06T03:15:06.705Z,960.85
2016-08-06T03:16:06.725Z,960.87
2016-08-06T03:17:06.766Z,960.88
2016-08-06T03:18:06.774Z,960.9
2016-08-06T03:19:06.798Z,960.89
2016-08-06T03:20:06.822Z,960.91
2016-08-06T03:21:06.846Z,960.9
2016-08-06T03:22:06.871Z,960.9
2016-08-06T03:23:06.893Z,960.92
2016-08-06T03:24:06.918Z,960.9
2016-08-06T03:25:06.944Z,960.89
2016-08-06T03:26:06.967Z,960.91
2016-08-06T03:27:06.990Z,960.94
2016-08-06T03:28:07.014Z,960.92
2016-08-06T03:29:07.039Z,960.9
2016-08-06T03:30:07.062Z,960.95
2016-08-06T03:31:07.086Z,960.94
2016-08-06T03:32:07.111Z,960.95
2016-08-06T03:33:07.135Z,960.93
2016-08-06T03:34:07.159Z,960.93
2016-08-06T03:35:07.184Z,960.91
2016-08-06T03:36:07.208Z,960.95
2016-08-06T03:37:07.233Z,960.93
2016-08-06T03:38:07.256Z,960.96
2016-08-06T03:39:07.280Z,960.95
2016-08-06T03:40:07.326Z,960.96
2016-08-06T03:41:07.328Z,960.97
2016-08-06T03:42:07.358Z,960.94
2016-08-06T03:43:07.376Z,960.93
2016-08-06T03:44:07.401Z,960.91
2016-08-06T03:45:07.428Z,960.91
2016-08-06T03:46:07.448Z,960.88
2016-08-06T03:47:07.472Z,960.93
2016-08-06T03:48:07.498Z,960.97
2016-08-06T03:49:07.522Z,960.95
2016-08-06T03:50:07.544Z,961
2016-08-06T03:51:07.587Z,961.01
2016-08-06T03:52:07.593Z,961.01
2016-08-06T03:53:07.617Z,961.01
2016-08-06T03:54:07.641Z,961
2016-08-06T03:55:07.666Z,961
2016-08-06T03:56:07.700Z,961.04
2016-08-06T03:57:07.714Z,960.99
2016-08-06T03:58:07.737Z,961.03
2016-08-06T03:59:07.762Z,961.02
2016-08-06T04:00:07.787Z,961.01
2016-08-06T04:01:07.809Z,961.02
2016-08-06T04:02:07.833Z,960.98
2016-08-06T04:03:07.908Z,960.98
2016-08-06T04:04:07.882Z,961
2016-08-06T04:05:07.906Z,961.05
2016-08-06T04:06:07.931Z,961.04
2016-08-06T04:07:07.954Z,961.05
2016-08-06T04:08:07.979Z,961.06
2016-08-06T04:09:08.003Z,961.07
2016-08-06T04:10:08.027Z,961.09
2016-08-06T04:11:08.051Z,961.06
2016-08-06T04:12:08.074Z,961.1
2016-08-06T04:13:08.099Z,961.13
2016-08-06T04:14:08.123Z,961.15
2016-08-06T04:15:08.147Z,961.15
2016-08-06T04:16:08.171Z,961.19
2016-08-06T04:17:08.196Z,961.18
2016-08-06T04:18:08.219Z,961.19
2016-08-06T04:19:08.257Z,961.2
2016-08-06T04:20:08.267Z,961.18
2016-08-06T04:21:08.291Z,961.22
2016-08-06T04:22:08.315Z,961.3
2016-08-06T04:23:08.339Z,961.29
2016-08-06T04:24:08.363Z,961.28
2016-08-06T04:25:08.388Z,961.21
2016-08-06T04:26:08.413Z,961.25
2016-08-06T04:27:08.437Z,961.26
2016-08-06T04:28:08.460Z,961.21
2016-08-06T04:29:08.483Z,961.22
2016-08-06T04:30:08.507Z,961.23
2016-08-06T04:31:08.532Z,961.22
2016-08-06T04:32:08.558Z,961.23
2016-08-06T04:33:08.581Z,961.28
2016-08-06T04:34:08.604Z,961.23
2016-08-06T04:35:08.632Z,961.28
2016-08-06T04:36:08.651Z,961.28
2016-08-06T04:37:08.678Z,961.31
2016-08-06T04:38:08.702Z,961.32
2016-08-06T04:39:08.728Z,961.35
2016-08-06T04:40:08.749Z,961.32
2016-08-06T04:41:08.777Z,961.35
2016-08-06T04:42:08.796Z,961.34
2016-08-06T04:43:08.821Z,961.31
2016-08-06T04:44:08.844Z,961.31
2016-08-06T04:45:08.870Z,961.33
2016-08-06T04:46:08.893Z,961.34
2016-08-06T04:47:08.918Z,961.32
2016-08-06T04:48:08.942Z,961.32
2016-08-06T04:49:08.966Z,961.31
2016-08-06T04:50:08.993Z,961.35
2016-08-06T04:51:09.012Z,961.29
2016-08-06T04:52:09.039Z,961.29
2016-08-06T04:53:09.062Z,961.27
2016-08-06T04:54:09.086Z,961.26
2016-08-06T04:55:09.110Z,961.25
2016-08-06T04:56:09.133Z,961.25
2016-08-06T04:57:09.158Z,961.26
2016-08-06T04:58:09.190Z,961.27
2016-08-06T04:59:09.206Z,961.26
2016-08-06T05:00:09.230Z,961.25
2016-08-06T05:01:09.253Z,961.28
2016-08-06T05:02:09.279Z,961.32
2016-08-06T05:03:09.302Z,961.36
2016-08-06T05:04:09.327Z,961.37
2016-08-06T05:05:09.350Z,961.38
2016-08-06T05:06:09.375Z,961.45
2016-08-06T05:07:09.400Z,961.45
2016-08-06T05:08:09.423Z,961.46
2016-08-06T05:09:09.446Z,961.43
2016-08-06T05:10:09.475Z,961.48
2016-08-06T05:11:09.495Z,961.44
2016-08-06T05:12:09.519Z,961.47
2016-08-06T05:13:09.543Z,961.47
2016-08-06T05:14:09.569Z,961.48
2016-08-06T05:15:09.596Z,961.44
2016-08-06T05:16:09.617Z,961.46
2016-08-06T05:17:09.640Z,961.44
2016-08-06T05:18:09.666Z,961.48
2016-08-06T05:19:09.689Z,961.49
2016-08-06T05:20:09.713Z,961.47
2016-08-06T05:21:09.738Z,961.45
2016-08-06T05:22:09.781Z,961.46
2016-08-06T05:23:09.788Z,961.45
2016-08-06T05:24:09.813Z,961.45
2016-08-06T05:25:09.836Z,961.46
2016-08-06T05:26:09.860Z,961.45
2016-08-06T05:27:09.883Z,961.44
2016-08-06T05:28:09.908Z,961.48
2016-08-06T05:29:09.933Z,961.5
2016-08-06T05:30:09.959Z,961.5
2016-08-06T05:31:09.982Z,961.51
2016-08-06T05:32:10.007Z,961.55
2016-08-06T05:33:10.030Z,961.54
2016-08-06T05:34:10.056Z,961.56
2016-08-06T05:35:10.078Z,961.54
2016-08-06T05:36:10.104Z,961.55
2016-08-06T05:37:10.136Z,961.56
2016-08-06T05:38:10.153Z,961.56
2016-08-06T05:39:10.177Z,961.6
2016-08-06T05:40:10.201Z,961.62
2016-08-06T05:41:10.227Z,961.58
2016-08-06T05:42:10.250Z,961.62
2016-08-06T05:43:10.276Z,961.62
2016-08-06T05:44:10.300Z,961.61
2016-08-06T05:45:10.340Z,961.58
2016-08-06T05:46:10.348Z,961.64
2016-08-06T05:47:10.373Z,961.62
2016-08-06T05:48:10.399Z,961.66
2016-08-06T05:49:10.422Z,961.68
2016-08-06T05:50:10.447Z,961.64
2016-08-06T05:51:10.473Z,961.7
2016-08-06T05:52:10.497Z,961.7
2016-08-06T05:53:10.521Z,961.67
2016-08-06T05:54:10.546Z,961.64
2016-08-06T05:55:10.572Z,961.62
2016-08-06T05:56:10.597Z,961.59
2016-08-06T05:57:10.620Z,961.6
2016-08-06T05:58:10.646Z,961.64
2016-08-06T05:59:10.671Z,961.64
2016-08-06T06:00:10.694Z,961.63
2016-08-06T06:01:10.723Z,961.66
2016-08-06T06:02:10.744Z,961.65
2016-08-06T06:03:10.767Z,961.66
2016-08-06T06:04:10.792Z,961.67
2016-08-06T06:05:10.817Z,961.69
2016-08-06T06:06:10.844Z,961.66
2016-08-06T06:07:10.868Z,961.66
2016-08-06T06:08:10.895Z,961.68
2016-08-06T06:09:10.930Z,961.67
2016-08-06T06:10:10.943Z,961.71
2016-08-06T06:11:10.972Z,961.73
2016-08-06T06:12:10.994Z,961.73
2016-08-06T06:13:11.018Z,961.75
2016-08-06T06:14:11.042Z,961.77
2016-08-06T06:15:11.067Z,961.79
2016-08-06T06:16:11.093Z,961.79
2016-08-06T06:17:11.118Z,961.78
2016-08-06T06:18:11.143Z,961.78
2016-08-06T06:19:11.167Z,961.79
2016-08-06T06:20:11.192Z,961.77
2016-08-06T06:21:11.217Z,961.8
2016-08-06T06:22:11.242Z,961.8
2016-08-06T06:23:11.268Z,961.76
2016-08-06T06:24:11.293Z,961.76
2016-08-06T06:25:11.323Z,961.83
2016-08-06T06:26:11.343Z,961.79
2016-08-06T06:27:11.368Z,961.87
2016-08-06T06:28:11.394Z,961.87
2016-08-06T06:29:11.420Z,961.91
2016-08-06T06:30:11.443Z,961.88
2016-08-06T06:31:11.469Z,961.91
2016-08-06T06:32:11.495Z,961.9
2016-08-06T06:33:11.522Z,961.94
2016-08-06T06:34:11.545Z,961.94
2016-08-06T06:35:11.571Z,961.95
2016-08-06T06:36:11.597Z,961.95
2016-08-06T06:37:11.622Z,961.97
2016-08-06T06:38:11.647Z,962
2016-08-06T06:39:11.673Z,962.01
2016-08-06T06:40:11.705Z,962
2016-08-06T06:41:11.723Z,961.97
2016-08-06T06:42:11.749Z,962.01
2016-08-06T06:43:11.776Z,962.05
2016-08-06T06:44:11.801Z,962.02
2016-08-06T06:45:11.826Z,962.05
2016-08-06T06:46:11.852Z,962.02
2016-08-06T06:47:11.878Z,961.99
2016-08-06T06:48:11.923Z,962.01
2016-08-06T06:49:11.927Z,962.01
2016-08-06T06:50:11.955Z,962.03
2016-08-06T06:51:11.981Z,962.05
2016-08-06T06:52:12.007Z,962.06
2016-08-06T06:53:12.032Z,962.03
2016-08-06T06:54:12.057Z,962.1
2016-08-06T06:55:12.084Z,962.09
2016-08-06T06:56:12.108Z,962.06
2016-08-06T06:57:12.134Z,962.06
2016-08-06T06:58:12.163Z,962.06
2016-08-06T06:59:12.186Z,962.13
2016-08-06T07:00:12.213Z,962.08
2016-08-06T07:01:12.241Z,962.11
2016-08-06T07:02:12.264Z,962.1
2016-08-06T07:03:12.291Z,962.09
2016-08-06T07:04:12.317Z,962.13
2016-08-06T07:05:12.343Z,962.16
2016-08-06T07:06:12.368Z,962.18
2016-08-06T07:07:12.394Z,962.18
2016-08-06T07:08:12.421Z,962.15
2016-08-06T07:09:12.448Z,962.16
2016-08-06T07:10:12.474Z,962.17
2016-08-06T07:11:12.500Z,962.17
2016-08-06T07:12:12.530Z,962.23
2016-08-06T07:13:12.552Z,962.22
2016-08-06T07:14:12.578Z,962.25
2016-08-06T07:15:12.605Z,962.28
2016-08-06T07:16:12.631Z,962.25
2016-08-06T07:17:12.658Z,962.28
2016-08-06T07:18:12.683Z,962.28
2016-08-06T07:19:12.709Z,962.32
2016-08-06T07:20:12.738Z,962.31
2016-08-06T07:21:12.763Z,962.36
2016-08-06T07:22:12.789Z,962.38
2016-08-06T07:23:12.817Z,962.38
2016-08-06T07:24:12.842Z,962.34
2016-08-06T07:25:12.868Z,962.38
2016-08-06T07:26:12.895Z,962.33
2016-08-06T07:27:12.921Z,962.36
2016-08-06T07:28:12.948Z,962.35
2016-08-06T07:29:12.973Z,962.4
2016-08-06T07:30:12.999Z,962.37
2016-08-06T07:31:13.027Z,962.41
2016-08-06T07:32:13.052Z,962.43
2016-08-06T07:33:13.079Z,962.38
2016-08-06T07:34:13.105Z,962.41
2016-08-06T07:35:13.132Z,962.35
2016-08-06T07:36:13.164Z,962.37
2016-08-06T07:37:13.184Z,962.38
2016-08-06T07:38:13.218Z,962.42
2016-08-06T07:39:13.242Z,962.42
2016-08-06T07:40:13.265Z,962.4
2016-08-06T07:41:13.291Z,962.43
2016-08-06T07:42:13.319Z,962.43
2016-08-06T07:43:13.346Z,962.49
2016-08-06T07:44:13.382Z,962.49
2016-08-06T07:45:13.398Z,962.46
2016-08-06T07:46:13.425Z,962.48
2016-08-06T07:47:13.451Z,962.5
2016-08-06T07:48:13.479Z,962.49
2016-08-06T07:49:13.505Z,962.52
2016-08-06T07:50:13.533Z,962.54
2016-08-06T07:51:13.559Z,962.54
2016-08-06T07:52:13.599Z,962.57
2016-08-06T07:53:13.612Z,962.56
2016-08-06T07:54:13.639Z,962.55
2016-08-06T07:55:13.667Z,962.54
2016-08-06T07:56:13.695Z,962.54
2016-08-06T07:57:13.719Z,962.59
2016-08-06T07:58:13.748Z,962.58
2016-08-06T07:59:13.775Z,962.6
2016-08-06T08:00:13.816Z,962.57
2016-08-06T08:01:13.828Z,962.54
2016-08-06T08:02:13.856Z,962.54
2016-08-06T08:03:13.932Z,962.52
2016-08-06T08:04:13.908Z,962.56
2016-08-06T08:05:13.936Z,962.54
2016-08-06T08:06:13.963Z,962.52
2016-08-06T08:07:13.991Z,962.52
2016-08-06T08:08:14.033Z,962.55
2016-08-06T08:09:14.046Z,962.53
2016-08-06T08:10:14.074Z,962.55
2016-08-06T08:11:14.101Z,962.54
2016-08-06T08:12:14.128Z,962.5
2016-08-06T08:13:14.156Z,962.51
2016-08-06T08:14:14.184Z,962.52
2016-08-06T08:15:14.209Z,962.46
2016-08-06T08:16:14.249Z,962.47
2016-08-06T08:17:14.266Z,962.47
2016-08-06T08:18:14.293Z,962.46
2016-08-06T08:19:14.319Z,962.47
2016-08-06T08:20:14.347Z,962.45
2016-08-06T08:21:14.376Z,962.51
2016-08-06T08:22:14.403Z,962.46
2016-08-06T08:23:14.429Z,962.47
2016-08-06T08:24:14.467Z,962.49
2016-08-06T08:25:14.486Z,962.47
2016-08-06T08:26:14.522Z,962.51
2016-08-06T08:27:14.540Z,962.54
2016-08-06T08:28:14.567Z,962.54
2016-08-06T08:29:14.596Z,962.57
2016-08-06T08:30:14.624Z,962.58
2016-08-06T08:31:14.650Z,962.57
2016-08-06T08:33:14.707Z,962.54
2016-08-06T08:34:14.733Z,962.49
2016-08-06T08:35:14.762Z,962.52
2016-08-06T08:36:14.790Z,962.54
2016-08-06T08:37:14.817Z,962.56
2016-08-06T08:38:14.844Z,962.57
2016-08-06T08:39:14.872Z,962.55
2016-08-06T08:40:14.902Z,962.57
2016-08-06T08:41:14.928Z,962.58
2016-08-06T08:42:14.956Z,962.59
2016-08-06T08:43:14.983Z,962.54
2016-08-06T08:44:15.011Z,962.57
2016-08-06T08:45:15.038Z,962.58
2016-08-06T08:46:15.068Z,962.57
2016-08-06T08:48:15.124Z,962.56
2016-08-06T08:49:15.150Z,962.59
2016-08-06T08:50:15.181Z,962.59
2016-08-06T08:51:15.206Z,962.56
2016-08-06T08:52:15.233Z,962.6
2016-08-06T08:53:15.262Z,962.61
2016-08-06T08:54:15.302Z,962.58
2016-08-06T08:55:15.319Z,962.58
2016-08-06T08:56:15.346Z,962.55
2016-08-06T08:57:15.374Z,962.54
2016-08-06T08:58:15.401Z,962.55
2016-08-06T08:59:15.428Z,962.54
2016-08-06T09:00:15.456Z,962.57
2016-08-06T09:01:15.487Z,962.61
2016-08-06T09:03:15.541Z,962.6
2016-08-06T09:04:15.572Z,962.65
2016-08-06T09:05:15.596Z,962.68
2016-08-06T09:06:15.624Z,962.71
2016-08-06T09:07:15.653Z,962.72
2016-08-06T09:08:15.682Z,962.69
2016-08-06T09:09:15.759Z,962.68
2016-08-06T09:10:15.735Z,962.67
2016-08-06T09:11:15.763Z,962.65
2016-08-06T09:12:15.791Z,962.74
2016-08-06T09:13:15.820Z,962.71
2016-08-06T09:14:15.848Z,962.74
2016-08-06T09:15:15.875Z,962.74
2016-08-06T09:16:15.904Z,962.79
2016-08-06T09:17:15.931Z,962.81
2016-08-06T09:18:15.960Z,962.76
2016-08-06T09:19:15.990Z,962.78
2016-08-06T09:20:16.018Z,962.77
2016-08-06T09:21:16.045Z,962.74
2016-08-06T09:22:16.071Z,962.77
2016-08-06T09:23:16.102Z,962.78
2016-08-06T09:24:16.130Z,962.77
2016-08-06T09:25:16.157Z,962.73
2016-08-06T09:26:16.185Z,962.74
2016-08-06T09:27:16.213Z,962.7
2016-08-06T09:28:16.261Z,962.74
2016-08-06T09:29:16.269Z,962.71
2016-08-06T09:30:16.296Z,962.75
2016-08-06T09:31:16.324Z,962.72
2016-08-06T09:32:16.352Z,962.67
2016-08-06T09:33:16.379Z,962.7
2016-08-06T09:34:16.407Z,962.7
2016-08-06T09:35:16.437Z,962.67
2016-08-06T09:36:16.478Z,962.72
2016-08-06T09:37:16.490Z,962.7
2016-08-06T09:38:16.520Z,962.72
2016-08-06T09:39:16.547Z,962.7
2016-08-06T09:40:16.582Z,962.69
2016-08-06T09:41:16.603Z,962.75
2016-08-06T09:42:16.630Z,962.71
2016-08-06T09:43:16.657Z,962.76
2016-08-06T09:44:16.695Z,962.7
2016-08-06T09:45:16.715Z,962.71
2016-08-06T09:46:16.742Z,962.68
2016-08-06T09:47:16.769Z,962.63
2016-08-06T09:48:16.797Z,962.68
2016-08-06T09:49:16.826Z,962.63
2016-08-06T09:50:16.854Z,962.63
2016-08-06T09:51:16.887Z,962.67
2016-08-06T09:52:16.911Z,962.7
2016-08-06T09:53:16.939Z,962.66
2016-08-06T09:54:16.966Z,962.66
2016-08-06T09:55:16.993Z,962.68
2016-08-06T09:56:17.023Z,962.65
2016-08-06T09:57:17.052Z,962.69
2016-08-06T09:58:17.079Z,962.73
2016-08-06T09:59:17.107Z,962.74
2016-08-06T10:00:17.143Z,962.79
2016-08-06T10:01:17.178Z,962.82
2016-08-06T10:02:17.192Z,962.83
2016-08-06T10:03:17.221Z,962.87
2016-08-06T10:04:17.249Z,962.82
2016-08-06T10:05:17.278Z,962.84
2016-08-06T10:06:17.306Z,962.74
2016-08-06T10:07:17.343Z,962.76
2016-08-06T10:08:17.366Z,962.77
2016-08-06T10:09:17.392Z,962.8
2016-08-06T10:10:17.421Z,962.81
2016-08-06T10:11:17.450Z,962.88
2016-08-06T10:12:17.478Z,962.9
2016-08-06T10:13:17.508Z,962.88
2016-08-06T10:14:17.543Z,962.87
2016-08-06T10:15:17.565Z,962.92
2016-08-06T10:16:17.593Z,962.87
2016-08-06T10:17:17.624Z,962.86
2016-08-06T10:18:17.654Z,962.87
2016-08-06T10:19:17.683Z,962.84
2016-08-06T10:20:17.710Z,962.83
2016-08-06T10:21:17.740Z,962.81
2016-08-06T10:22:17.768Z,962.81
2016-08-06T10:23:17.797Z,962.82
2016-08-06T10:24:17.826Z,962.83
2016-08-06T10:25:17.873Z,962.84
2016-08-06T10:26:17.884Z,962.84
2016-08-06T10:27:17.913Z,962.82
2016-08-06T10:28:17.942Z,962.85
2016-08-06T10:29:17.972Z,962.88
2016-08-06T10:30:18.003Z,962.91
2016-08-06T10:31:18.030Z,962.9
2016-08-06T10:32:18.059Z,962.95
2016-08-06T10:33:18.095Z,962.96
2016-08-06T10:34:18.117Z,962.97
2016-08-06T10:35:18.148Z,962.92
2016-08-06T10:36:18.177Z,962.96
2016-08-06T10:37:18.207Z,962.95
2016-08-06T10:38:18.234Z,962.96
2016-08-06T10:39:18.265Z,962.95
2016-08-06T10:40:18.295Z,962.91
2016-08-06T10:41:18.327Z,962.91
2016-08-06T10:42:18.354Z,962.92
2016-08-06T10:43:18.384Z,962.95
2016-08-06T10:44:18.413Z,962.95
2016-08-06T10:45:18.442Z,962.96
2016-08-06T10:46:18.472Z,962.96
2016-08-06T10:47:18.502Z,962.95
2016-08-06T10:48:18.532Z,962.93
2016-08-06T10:49:18.583Z,962.96
2016-08-06T10:50:18.591Z,963.02
2016-08-06T10:51:18.621Z,963.05
2016-08-06T10:52:18.650Z,963.02
2016-08-06T10:53:18.681Z,963.04
2016-08-06T10:54:18.712Z,963.08
2016-08-06T10:55:18.739Z,963.02
2016-08-06T10:56:18.775Z,963.03
2016-08-06T10:57:18.800Z,963.04
2016-08-06T10:58:18.828Z,963.06
2016-08-06T10:59:18.857Z,963.05
2016-08-06T11:00:18.887Z,963.04
2016-08-06T11:01:18.916Z,963.08
2016-08-06T11:02:18.945Z,963.07
2016-08-06T11:03:18.973Z,963.05
2016-08-06T11:04:19.004Z,963.1
2016-08-06T11:05:19.033Z,963.11
2016-08-06T11:06:19.064Z,963.09
2016-08-06T11:07:19.090Z,963.07
2016-08-06T11:08:19.120Z,963.1
2016-08-06T11:09:19.149Z,963.11
2016-08-06T11:10:19.179Z,963.11
2016-08-06T11:11:19.207Z,963.15
2016-08-06T11:12:19.236Z,963.19
2016-08-06T11:13:19.265Z,963.18
2016-08-06T11:14:19.325Z,963.15
2016-08-06T11:15:19.324Z,963.11
2016-08-06T11:16:19.352Z,963.09
2016-08-06T11:17:19.382Z,963.1
2016-08-06T11:18:19.410Z,963.07
2016-08-06T11:19:19.439Z,963.09
2016-08-06T11:20:19.467Z,963.06
2016-08-06T11:21:19.497Z,963.03
2016-08-06T11:22:19.544Z,963.02
2016-08-06T11:23:19.553Z,963.01
2016-08-06T11:24:19.582Z,962.95
2016-08-06T11:25:19.610Z,962.97
2016-08-06T11:26:19.639Z,962.98
2016-08-06T11:27:19.668Z,962.95
2016-08-06T11:28:19.696Z,962.98
2016-08-06T11:29:19.730Z,962.95
2016-08-06T11:30:19.765Z,963
2016-08-06T11:31:19.782Z,963
2016-08-06T11:32:19.811Z,962.99
2016-08-06T11:33:19.839Z,962.97
2016-08-06T11:34:19.869Z,962.95
2016-08-06T11:35:19.897Z,962.99
2016-08-06T11:36:19.924Z,962.98
2016-08-06T11:37:19.955Z,963.02
2016-08-06T11:38:19.983Z,962.99
2016-08-06T11:39:20.011Z,962.96
2016-08-06T11:40:20.049Z,962.95
2016-08-06T11:41:20.067Z,963
2016-08-06T11:42:20.096Z,963
2016-08-06T11:43:20.124Z,963.01
2016-08-06T11:44:20.152Z,962.98
2016-08-06T11:45:20.181Z,962.99
2016-08-06T11:46:20.209Z,963.03
2016-08-06T11:47:20.238Z,963.01
2016-08-06T11:48:20.268Z,963.04
2016-08-06T11:49:20.303Z,963.01
2016-08-06T11:50:20.324Z,962.98
2016-08-06T11:51:20.351Z,962.96
2016-08-06T11:52:20.380Z,962.97
2016-08-06T11:53:20.408Z,962.97
2016-08-06T11:54:20.438Z,962.97
2016-08-06T11:55:20.466Z,962.95
2016-08-06T11:56:20.507Z,962.99
2016-08-06T11:57:20.522Z,962.98
2016-08-06T11:58:20.602Z,962.96
2016-08-06T11:59:20.579Z,962.95
2016-08-06T12:00:20.607Z,962.95
2016-08-06T12:01:20.637Z,962.93
2016-08-06T12:02:20.664Z,962.98
2016-08-06T12:03:20.743Z,962.98
2016-08-06T12:04:20.722Z,963
2016-08-06T12:05:20.750Z,962.95
2016-08-06T12:06:20.779Z,962.99
2016-08-06T12:07:20.808Z,962.98
2016-08-06T12:08:20.836Z,962.98
2016-08-06T12:09:20.865Z,962.99
2016-08-06T12:10:20.904Z,962.97
2016-08-06T12:11:20.922Z,962.97
2016-08-06T12:12:20.951Z,962.98
2016-08-06T12:13:20.978Z,962.99
2016-08-06T12:14:21.007Z,963.01
2016-08-06T12:15:21.036Z,963.01
2016-08-06T12:16:21.074Z,963.02
2016-08-06T12:17:21.094Z,963.04
2016-08-06T12:18:21.123Z,962.99
2016-08-06T12:19:21.152Z,963.02
2016-08-06T12:20:21.179Z,963.04
2016-08-06T12:21:21.208Z,963.06
2016-08-06T12:22:21.238Z,963.07
2016-08-06T12:23:21.268Z,963.07
2016-08-06T12:24:21.294Z,963.05
2016-08-06T12:25:21.323Z,963.11
2016-08-06T12:26:21.352Z,963.11
2016-08-06T12:27:21.382Z,963.13
2016-08-06T12:28:21.410Z,963.17
2016-08-06T12:29:21.440Z,963.16
2016-08-06T12:30:21.468Z,963.13
2016-08-06T12:31:21.498Z,963.16
2016-08-06T12:32:21.954Z,963.15
2016-08-06T12:33:21.726Z,963.1
2016-08-06T12:34:21.585Z,963.15
2016-08-06T12:35:21.670Z,963.13
2016-08-06T12:36:21.641Z,963.11